createdAt,value
2019-01-28T04:01:02.590Z,963.40
2019-01-28T04:02:02.732Z,963.41
2019-01-28T04:03:02.894Z,963.41
2019-01-28T04:04:03.001Z,963.42
2019-01-28T04:05:03.213Z,963.39
2019-01-28T04:06:03.314Z,963.34
2019-01-28T04:07:03.533Z,963.36
2019-01-28T04:08:03.665Z,963.40
2019-01-28T04:09:03.785Z,963.35
2019-01-28T04:10:03.996Z,963.33
2019-01-28T04:11:04.202Z,963.33
2019-01-28T04:12:04.296Z,963.30
2019-01-28T04:13:04.492Z,963.32
2019-01-28T04:14:04.702Z,963.30
2019-01-28T04:15:04.804Z,963.32
2019-01-28T04:16:04.951Z,963.28
2019-01-28T04:17:05.147Z,963.25
2019-01-28T04:18:05.279Z,963.24
2019-01-28T04:19:05.487Z,963.25
2019-01-28T04:20:05.621Z,963.24
2019-01-28T04:21:05.799Z,963.17
2019-01-28T04:22:05.926Z,963.18
2019-01-28T04:23:06.083Z,963.20
2019-01-28T04:24:06.244Z,963.14
2019-01-28T04:25:06.442Z,963.16
2019-01-28T04:26:06.620Z,963.20
2019-01-28T04:27:06.815Z,963.08
2019-01-28T04:28:06.988Z,963.12
2019-01-28T04:29:07.089Z,963.08
2019-01-28T04:30:07.261Z,963.11
2019-01-28T04:31:07.426Z,963.03
2019-01-28T04:32:07.534Z,963.07
2019-01-28T04:33:07.742Z,963.03
2019-01-28T04:34:07.849Z,963.07
2019-01-28T04:35:08.031Z,963.06
2019-01-28T04:36:08.186Z,963.01
2019-01-28T04:37:08.317Z,963.06
2019-01-28T04:38:08.470Z,963.04
2019-01-28T04:39:08.662Z,963.01
2019-01-28T04:40:08.855Z,963.01
2019-01-28T04:41:09.039Z,962.98
2019-01-28T04:42:09.186Z,963.02
2019-01-28T04:43:09.337Z,962.94
2019-01-28T04:44:09.463Z,962.98
2019-01-28T04:45:09.659Z,962.98
2019-01-28T04:46:09.812Z,962.88
2019-01-28T04:47:09.907Z,962.90
2019-01-28T04:48:10.086Z,962.85
2019-01-28T04:49:10.268Z,962.92
2019-01-28T04:50:10.416Z,962.88
2019-01-28T04:51:10.630Z,962.90
2019-01-28T04:52:10.710Z,962.88
2019-01-28T04:53:10.862Z,962.93
2019-01-28T04:54:11.003Z,962.82
2019-01-28T04:55:11.165Z,962.82
2019-01-28T04:56:11.389Z,962.84
2019-01-28T04:57:11.549Z,962.84
2019-01-28T04:58:11.664Z,962.81
2019-01-28T04:59:11.873Z,962.85
2019-01-28T05:00:12.019Z,962.76
2019-01-28T05:01:12.112Z,962.76
2019-01-28T05:02:12.281Z,962.75
2019-01-28T05:03:12.517Z,962.75
2019-01-28T05:04:12.665Z,962.78
2019-01-28T05:05:12.824Z,962.70
2019-01-28T05:06:12.967Z,962.68
2019-01-28T05:07:13.105Z,962.68
2019-01-28T05:08:13.255Z,962.60
2019-01-28T05:09:13.396Z,962.66
2019-01-28T05:10:13.542Z,962.61
2019-01-28T05:11:13.768Z,962.62
2019-01-28T05:12:13.881Z,962.54
2019-01-28T05:13:14.054Z,962.58
2019-01-28T05:14:14.152Z,962.57
2019-01-28T05:15:14.336Z,962.59
2019-01-28T05:16:14.472Z,962.49
2019-01-28T05:17:14.714Z,962.60
2019-01-28T05:18:14.843Z,962.50
2019-01-28T05:19:14.981Z,962.52
2019-01-28T05:20:15.126Z,962.44
2019-01-28T05:21:15.288Z,962.44
2019-01-28T05:22:15.519Z,962.47
2019-01-28T05:23:15.600Z,962.45
2019-01-28T05:24:15.845Z,962.44
2019-01-28T05:25:15.949Z,962.47
2019-01-28T05:26:16.126Z,962.48
2019-01-28T05:27:16.250Z,962.44
2019-01-28T05:28:16.389Z,962.40
2019-01-28T05:29:16.593Z,962.62
2019-01-28T05:30:16.769Z,962.32
2019-01-28T05:31:16.901Z,962.45
2019-01-28T05:32:17.008Z,962.47
2019-01-28T05:33:17.271Z,962.46
2019-01-28T05:34:17.386Z,962.39
2019-01-28T05:35:17.550Z,962.45
2019-01-28T05:36:17.705Z,962.41
2019-01-28T05:37:17.901Z,962.42
2019-01-28T05:38:18.094Z,962.53
2019-01-28T05:39:18.168Z,962.42
2019-01-28T05:40:18.317Z,962.50
2019-01-28T05:41:18.442Z,962.47
2019-01-28T05:42:18.636Z,962.40
2019-01-28T05:43:18.820Z,962.37
2019-01-28T05:44:18.991Z,962.43
2019-01-28T05:45:19.114Z,962.50
2019-01-28T05:46:19.244Z,962.47
2019-01-28T05:47:19.472Z,962.41
2019-01-28T05:48:19.607Z,962.42
2019-01-28T05:49:19.784Z,962.40
2019-01-28T05:50:19.904Z,962.45
2019-01-28T05:51:20.063Z,962.49
2019-01-28T05:52:20.194Z,962.41
2019-01-28T05:53:20.339Z,962.46
2019-01-28T05:54:20.572Z,962.49
2019-01-28T05:55:20.703Z,962.48
2019-01-28T05:56:20.849Z,962.45
2019-01-28T05:57:20.998Z,962.53
2019-01-28T05:58:21.183Z,962.44
2019-01-28T05:59:21.355Z,962.43
2019-01-28T06:00:21.481Z,962.49
2019-01-28T06:01:21.615Z,962.47
2019-01-28T06:02:21.899Z,962.44
2019-01-28T06:03:21.942Z,962.50
2019-01-28T06:04:22.157Z,962.44
2019-01-28T06:05:22.257Z,962.46
2019-01-28T06:06:22.467Z,962.49
2019-01-28T06:07:22.577Z,962.47
2019-01-28T06:08:22.777Z,962.47
2019-01-28T06:09:23.696Z,962.41
2019-01-28T06:10:23.057Z,962.41
2019-01-28T06:11:23.221Z,962.44
2019-01-28T06:12:23.320Z,962.43
2019-01-28T06:13:23.505Z,962.51
2019-01-28T06:14:23.751Z,962.45
2019-01-28T06:15:23.802Z,962.42
2019-01-28T06:16:23.975Z,962.42
2019-01-28T06:17:24.189Z,962.39
2019-01-28T06:18:24.346Z,962.43
2019-01-28T06:19:24.510Z,962.50
2019-01-28T06:20:24.684Z,962.49
2019-01-28T06:21:24.765Z,962.46
2019-01-28T06:22:24.912Z,962.48
2019-01-28T06:23:25.084Z,962.44
2019-01-28T06:24:25.256Z,962.41
2019-01-28T06:25:25.433Z,962.47
2019-01-28T06:26:25.619Z,962.44
2019-01-28T06:27:25.737Z,962.33
2019-01-28T06:28:25.881Z,962.43
2019-01-28T06:29:26.079Z,962.42
2019-01-28T06:30:26.240Z,962.43
2019-01-28T06:31:26.409Z,962.43
2019-01-28T06:32:26.639Z,962.48
2019-01-28T06:33:26.696Z,962.41
2019-01-28T06:34:26.894Z,962.43
2019-01-28T06:35:27.072Z,962.45
2019-01-28T06:36:27.162Z,962.47
2019-01-28T06:37:27.324Z,962.46
2019-01-28T06:38:27.533Z,962.45
2019-01-28T06:39:27.653Z,962.44
2019-01-28T06:40:27.787Z,962.51
2019-01-28T06:41:27.929Z,962.45
2019-01-28T06:42:28.117Z,962.47
2019-01-28T06:43:28.267Z,962.47
2019-01-28T06:44:28.532Z,962.51
2019-01-28T06:45:28.603Z,962.50
2019-01-28T06:46:28.763Z,962.54
2019-01-28T06:47:28.939Z,962.62
2019-01-28T06:48:29.072Z,962.49
2019-01-28T06:49:29.227Z,962.51
2019-01-28T06:50:29.339Z,962.48
2019-01-28T06:51:29.524Z,962.51
2019-01-28T06:52:29.651Z,962.47
2019-01-28T06:53:29.888Z,962.46
2019-01-28T06:54:30.066Z,962.50
2019-01-28T06:55:30.162Z,962.46
2019-01-28T06:56:30.352Z,962.53
2019-01-28T06:57:30.467Z,962.51
2019-01-28T06:58:30.545Z,962.54
2019-01-28T06:59:30.765Z,962.51
2019-01-28T07:00:30.873Z,962.56
2019-01-28T07:01:31.072Z,962.51
2019-01-28T07:02:31.226Z,962.65
2019-01-28T07:03:31.370Z,962.52
2019-01-28T07:04:31.545Z,962.51
2019-01-28T07:05:31.726Z,962.56
2019-01-28T07:06:31.826Z,962.54
2019-01-28T07:07:31.983Z,962.58
2019-01-28T07:08:32.156Z,962.55
2019-01-28T07:09:32.431Z,962.58
2019-01-28T07:10:32.535Z,962.57
2019-01-28T07:11:32.636Z,962.56
2019-01-28T07:12:32.824Z,962.56
2019-01-28T07:13:32.975Z,962.58
2019-01-28T07:14:33.114Z,962.55
2019-01-28T07:15:33.255Z,962.49
2019-01-28T07:16:33.429Z,962.58
2019-01-28T07:17:33.542Z,962.52
2019-01-28T07:18:33.747Z,962.53
2019-01-28T07:19:33.865Z,962.52
2019-01-28T07:20:34.035Z,962.48
2019-01-28T07:21:34.217Z,962.58
2019-01-28T07:22:34.343Z,962.59
2019-01-28T07:23:34.463Z,962.58
2019-01-28T07:24:34.619Z,962.57
2019-01-28T07:25:34.784Z,962.54
2019-01-28T07:26:34.996Z,962.56
2019-01-28T07:27:35.141Z,962.60
2019-01-28T07:28:35.299Z,962.58
2019-01-28T07:29:35.431Z,962.58
2019-01-28T07:30:35.583Z,962.58
2019-01-28T07:31:35.765Z,962.56
2019-01-28T07:32:35.900Z,962.56
2019-01-28T07:33:36.120Z,962.53
2019-01-28T07:34:36.256Z,962.56
2019-01-28T07:35:36.414Z,962.51
2019-01-28T07:36:36.577Z,962.57
2019-01-28T07:37:36.826Z,962.54
2019-01-28T07:38:36.941Z,962.48
2019-01-28T07:39:37.070Z,962.53
2019-01-28T07:40:37.262Z,962.52
2019-01-28T07:41:37.445Z,962.49
2019-01-28T07:42:37.580Z,962.52
2019-01-28T07:43:37.821Z,962.49
2019-01-28T07:44:37.961Z,962.48
2019-01-28T07:45:44.876Z,962.47
2019-01-28T07:46:38.294Z,962.50
2019-01-28T07:47:38.415Z,962.53
2019-01-28T07:48:38.525Z,962.55
2019-01-28T07:49:38.701Z,962.53
2019-01-28T07:50:38.866Z,962.48
2019-01-28T07:51:39.001Z,962.53
2019-01-28T07:52:39.207Z,962.56
2019-01-28T07:53:39.392Z,962.53
2019-01-28T07:54:39.563Z,962.45
2019-01-28T07:55:39.703Z,962.51
2019-01-28T07:56:39.881Z,962.52
2019-01-28T07:57:40.074Z,962.53
2019-01-28T07:58:40.190Z,962.46
2019-01-28T07:59:40.356Z,962.52
2019-01-28T08:00:40.530Z,962.48
2019-01-28T08:01:40.679Z,962.50
2019-01-28T08:02:40.883Z,962.54
2019-01-28T08:03:40.994Z,962.46
2019-01-28T08:04:41.155Z,962.43
2019-01-28T08:05:41.346Z,962.45
2019-01-28T08:06:41.476Z,962.46
2019-01-28T08:07:41.616Z,962.41
2019-01-28T08:08:41.853Z,962.44
2019-01-28T08:09:41.941Z,962.45
2019-01-28T08:10:42.062Z,962.50
2019-01-28T08:11:42.312Z,962.41
2019-01-28T08:12:42.476Z,962.48
2019-01-28T08:13:42.623Z,962.50
2019-01-28T08:14:42.757Z,962.53
2019-01-28T08:15:42.873Z,962.53
2019-01-28T08:16:43.058Z,962.55
2019-01-28T08:17:43.156Z,962.57
2019-01-28T08:18:43.350Z,962.59
2019-01-28T08:19:43.528Z,962.64
2019-01-28T08:20:43.687Z,962.58
2019-01-28T08:21:43.865Z,962.55
2019-01-28T08:22:44.010Z,962.52
2019-01-28T08:23:44.151Z,962.53
2019-01-28T08:24:44.339Z,962.56
2019-01-28T08:25:44.424Z,962.51
2019-01-28T08:26:44.600Z,962.49
2019-01-28T08:27:44.776Z,962.47
2019-01-28T08:28:44.939Z,962.54
2019-01-28T08:29:45.147Z,962.54
2019-01-28T08:30:45.271Z,962.53
2019-01-28T08:31:45.437Z,962.50
2019-01-28T08:32:45.581Z,962.53
2019-01-28T08:33:45.770Z,962.53
2019-01-28T08:34:45.919Z,962.50
2019-01-28T08:35:46.034Z,962.52
2019-01-28T08:36:46.227Z,962.53
2019-01-28T08:37:46.411Z,962.52
2019-01-28T08:38:46.551Z,962.54
2019-01-28T08:39:46.678Z,962.52
2019-01-28T08:40:46.856Z,962.50
2019-01-28T08:41:47.020Z,962.52
2019-01-28T08:42:47.154Z,962.53
2019-01-28T08:43:47.324Z,962.53
2019-01-28T08:44:47.514Z,962.56
2019-01-28T08:45:47.615Z,962.57
2019-01-28T08:46:47.832Z,962.56
2019-01-28T08:47:47.960Z,962.54
2019-01-28T08:48:48.093Z,962.58
2019-01-28T08:49:48.259Z,962.59
2019-01-28T08:50:48.399Z,962.62
2019-01-28T08:51:48.583Z,962.61
2019-01-28T08:52:48.712Z,962.59
2019-01-28T08:53:48.886Z,962.59
2019-01-28T08:54:49.007Z,962.64
2019-01-28T08:55:49.209Z,962.61
2019-01-28T08:56:49.361Z,962.61
2019-01-28T08:57:49.536Z,962.62
2019-01-28T08:58:49.690Z,962.62
2019-01-28T08:59:49.818Z,962.57
2019-01-28T09:00:49.975Z,962.55
2019-01-28T09:01:50.202Z,962.55
2019-01-28T09:02:50.293Z,962.61
2019-01-28T09:03:50.501Z,962.56
2019-01-28T09:04:50.684Z,962.57
2019-01-28T09:05:50.780Z,962.53
2019-01-28T09:06:50.959Z,962.57
2019-01-28T09:07:51.065Z,962.55
2019-01-28T09:08:51.300Z,962.55
2019-01-28T09:09:51.388Z,962.59
2019-01-28T09:10:51.591Z,962.51
2019-01-28T09:11:51.762Z,962.57
2019-01-28T09:12:51.909Z,962.52
2019-01-28T09:13:52.106Z,962.53
2019-01-28T09:14:52.213Z,962.54
2019-01-28T09:15:52.367Z,962.52
2019-01-28T09:16:52.532Z,962.50
2019-01-28T09:17:52.737Z,962.57
2019-01-28T09:18:52.837Z,962.54
2019-01-28T09:19:53.007Z,962.53
2019-01-28T09:20:53.158Z,962.54
2019-01-28T09:21:53.381Z,962.54
2019-01-28T09:22:53.475Z,962.53
2019-01-28T09:23:53.613Z,962.53
2019-01-28T09:24:53.761Z,962.54
2019-01-28T09:25:53.947Z,962.57
2019-01-28T09:26:54.143Z,962.55
2019-01-28T09:27:54.336Z,962.53
2019-01-28T09:28:54.495Z,962.53
2019-01-28T09:29:54.655Z,962.52
2019-01-28T09:30:54.763Z,962.56
2019-01-28T09:31:54.978Z,962.55
2019-01-28T09:32:55.126Z,962.53
2019-01-28T09:33:55.277Z,962.61
2019-01-28T09:34:55.493Z,962.63
2019-01-28T09:35:55.641Z,962.60
2019-01-28T09:36:55.839Z,962.56
2019-01-28T09:37:55.938Z,962.57
2019-01-28T09:38:56.105Z,962.64
2019-01-28T09:39:56.277Z,962.62
2019-01-28T09:40:56.372Z,962.60
2019-01-28T09:41:56.580Z,962.60
2019-01-28T09:42:56.741Z,962.62
2019-01-28T09:43:56.886Z,962.63
2019-01-28T09:44:57.068Z,962.65
2019-01-28T09:45:57.157Z,962.67
2019-01-28T09:46:57.341Z,962.60
2019-01-28T09:47:57.455Z,962.63
2019-01-28T09:48:57.631Z,962.67
2019-01-28T09:49:57.795Z,962.68
2019-01-28T09:50:57.992Z,962.75
2019-01-28T09:51:58.164Z,962.74
2019-01-28T09:52:58.222Z,962.69
2019-01-28T09:53:58.439Z,962.70
2019-01-28T09:54:58.612Z,962.69
2019-01-28T09:55:58.760Z,962.73
2019-01-28T09:56:58.964Z,962.70
2019-01-28T09:57:59.060Z,962.72
2019-01-28T09:58:59.187Z,962.76
2019-01-28T09:59:59.374Z,962.78
2019-01-28T10:00:59.592Z,962.81
2019-01-28T10:01:59.687Z,962.77
2019-01-28T10:02:59.869Z,962.80
2019-01-28T10:04:00.028Z,962.79
2019-01-28T10:05:00.265Z,962.77
2019-01-28T10:06:00.337Z,962.79
2019-01-28T10:07:01.287Z,962.73
2019-01-28T10:08:00.710Z,962.79
2019-01-28T10:09:00.906Z,962.75
2019-01-28T10:10:01.044Z,962.79
2019-01-28T10:11:01.122Z,962.90
2019-01-28T10:12:01.353Z,962.78
2019-01-28T10:13:01.511Z,962.83
2019-01-28T10:14:01.629Z,962.82
2019-01-28T10:15:01.775Z,962.81
2019-01-28T10:16:01.947Z,962.81
2019-01-28T10:17:02.079Z,962.85
2019-01-28T10:18:02.251Z,962.81
2019-01-28T10:19:02.467Z,962.80
2019-01-28T10:20:02.634Z,962.84
2019-01-28T10:21:02.835Z,962.78
2019-01-28T10:22:02.904Z,962.73
2019-01-28T10:23:03.041Z,962.79
2019-01-28T10:24:03.279Z,962.72
2019-01-28T10:25:03.437Z,962.75
2019-01-28T10:26:03.572Z,962.74
2019-01-28T10:27:03.682Z,962.83
2019-01-28T10:28:03.912Z,962.87
2019-01-28T10:29:04.071Z,962.83
2019-01-28T10:30:04.191Z,962.77
2019-01-28T10:31:04.411Z,962.83
2019-01-28T10:32:04.512Z,962.89
2019-01-28T10:33:04.723Z,962.93
2019-01-28T10:34:06.321Z,962.91
2019-01-28T10:35:05.064Z,962.96
2019-01-28T10:36:05.156Z,962.96
2019-01-28T10:37:05.300Z,962.98
2019-01-28T10:38:05.442Z,963.02
2019-01-28T10:39:05.634Z,963.06
2019-01-28T10:40:07.095Z,962.99
2019-01-28T10:41:05.970Z,962.96
2019-01-28T10:42:09.817Z,962.94
2019-01-28T10:43:06.289Z,962.94
2019-01-28T10:44:10.259Z,962.97
2019-01-28T10:45:06.640Z,962.93
2019-01-28T10:46:06.774Z,962.90
2019-01-28T10:47:06.891Z,962.92
2019-01-28T10:48:07.049Z,962.91
2019-01-28T10:49:07.258Z,962.93
2019-01-28T10:50:07.406Z,962.85
2019-01-28T10:51:07.512Z,962.89
2019-01-28T10:52:07.745Z,962.90
2019-01-28T10:53:07.865Z,962.90
2019-01-28T10:54:08.016Z,962.86
2019-01-28T10:55:08.175Z,962.88
2019-01-28T10:56:08.323Z,962.82
2019-01-28T10:57:08.541Z,962.85
2019-01-28T10:58:08.676Z,962.79
2019-01-28T10:59:08.811Z,962.84
2019-01-28T11:00:11.609Z,962.88
2019-01-28T11:01:09.145Z,962.88
2019-01-28T11:02:09.314Z,962.85
2019-01-28T11:03:09.428Z,962.80
2019-01-28T11:04:09.572Z,962.80
2019-01-28T11:05:09.745Z,962.85
2019-01-28T11:06:09.957Z,962.85
2019-01-28T11:07:10.049Z,962.84
2019-01-28T11:08:10.247Z,962.84
2019-01-28T11:09:10.433Z,962.87
2019-01-28T11:10:10.672Z,962.89
2019-01-28T11:11:10.729Z,962.97
2019-01-28T11:12:10.877Z,962.90
2019-01-28T11:13:11.165Z,962.91
2019-01-28T11:14:11.222Z,962.82
2019-01-28T11:15:11.448Z,962.84
2019-01-28T11:16:11.577Z,962.79
2019-01-28T11:17:12.200Z,962.83
2019-01-28T11:18:11.828Z,962.80
2019-01-28T11:19:12.058Z,962.77
2019-01-28T11:20:12.256Z,962.76
2019-01-28T11:21:12.319Z,962.72
2019-01-28T11:22:12.496Z,962.72
2019-01-28T11:23:12.763Z,962.65
2019-01-28T11:24:12.787Z,962.70
2019-01-28T11:25:12.964Z,962.69
2019-01-28T11:26:13.233Z,962.71
2019-01-28T11:27:13.206Z,962.79
2019-01-28T11:28:13.365Z,962.66
2019-01-28T11:29:13.569Z,962.58
2019-01-28T11:30:13.736Z,962.63
2019-01-28T11:31:13.937Z,962.68
2019-01-28T11:32:14.111Z,962.65
2019-01-28T11:33:14.191Z,962.69
2019-01-28T11:34:14.439Z,962.67
2019-01-28T11:35:14.731Z,962.73
2019-01-28T11:36:14.735Z,962.71
2019-01-28T11:37:15.321Z,962.73
2019-01-28T11:38:15.150Z,962.71
2019-01-28T11:39:15.309Z,962.75
2019-01-28T11:40:15.391Z,962.72
2019-01-28T11:41:15.663Z,962.69
2019-01-28T11:42:15.912Z,962.67
2019-01-28T11:43:15.951Z,962.69
2019-01-28T11:44:16.137Z,962.78
2019-01-28T11:45:16.296Z,962.72
2019-01-28T11:46:16.495Z,962.68
2019-01-28T11:47:16.702Z,962.79
2019-01-28T11:48:16.672Z,962.77
2019-01-28T11:49:16.862Z,962.77
2019-01-28T11:50:17.156Z,962.86
2019-01-28T11:51:17.147Z,962.80
2019-01-28T11:52:17.422Z,962.74
2019-01-28T11:53:17.516Z,962.78
2019-01-28T11:54:17.646Z,962.79
2019-01-28T11:55:17.787Z,962.78
2019-01-28T11:56:18.010Z,962.79
2019-01-28T11:57:18.107Z,962.82
2019-01-28T11:58:18.379Z,962.78
2019-01-28T11:59:18.457Z,962.80
2019-01-28T12:00:18.669Z,962.76
2019-01-28T12:01:18.791Z,962.78
2019-01-28T12:02:18.968Z,962.74
2019-01-28T12:03:19.084Z,962.78
2019-01-28T12:04:19.299Z,962.77
2019-01-28T12:05:19.411Z,962.78
2019-01-28T12:06:19.633Z,962.77
2019-01-28T12:07:19.781Z,962.81
2019-01-28T12:08:19.900Z,962.75
2019-01-28T12:09:20.011Z,962.79
2019-01-28T12:10:20.212Z,962.87
2019-01-28T12:11:20.364Z,962.84
2019-01-28T12:12:20.554Z,962.86
2019-01-28T12:13:20.673Z,962.89
2019-01-28T12:14:20.913Z,962.83
2019-01-28T12:15:21.023Z,962.84
2019-01-28T12:16:21.179Z,962.85
2019-01-28T12:17:21.307Z,962.79
2019-01-28T12:18:21.504Z,962.84
2019-01-28T12:19:21.600Z,962.82
2019-01-28T12:20:21.805Z,962.83
2019-01-28T12:21:21.964Z,962.89
2019-01-28T12:22:22.067Z,962.87
2019-01-28T12:23:22.271Z,962.88
2019-01-28T12:24:22.479Z,962.85
2019-01-28T12:25:22.589Z,962.91
2019-01-28T12:26:22.707Z,962.92
2019-01-28T12:27:22.887Z,962.98
2019-01-28T12:28:23.048Z,962.94
2019-01-28T12:29:23.259Z,962.89
2019-01-28T12:30:23.355Z,962.90
2019-01-28T12:31:23.533Z,962.95
2019-01-28T12:32:23.751Z,962.96
2019-01-28T12:33:23.852Z,963.02
2019-01-28T12:34:24.137Z,963.02
2019-01-28T12:35:24.177Z,963.02
2019-01-28T12:36:24.355Z,963.06
2019-01-28T12:37:24.499Z,963.04
2019-01-28T12:38:24.614Z,963.07
2019-01-28T12:39:24.837Z,963.05
2019-01-28T12:40:25.045Z,963.07
2019-01-28T12:41:25.128Z,963.08
2019-01-28T12:42:25.290Z,963.07
2019-01-28T12:43:25.482Z,963.07
2019-01-28T12:44:25.671Z,963.06
2019-01-28T12:45:25.805Z,963.03
2019-01-28T12:46:26.032Z,963.10
2019-01-28T12:47:26.181Z,963.07
2019-01-28T12:48:26.290Z,963.09
2019-01-28T12:49:26.473Z,963.14
2019-01-28T12:50:26.641Z,963.20
2019-01-28T12:51:26.795Z,963.15
2019-01-28T12:52:26.929Z,963.20
2019-01-28T12:53:27.071Z,963.23
2019-01-28T12:54:27.214Z,963.25
2019-01-28T12:55:27.409Z,963.23
2019-01-28T12:56:27.531Z,963.23
2019-01-28T12:57:27.748Z,963.24
2019-01-28T12:58:27.883Z,963.22
2019-01-28T12:59:28.075Z,963.22
2019-01-28T13:00:28.183Z,963.22
2019-01-28T13:01:28.366Z,963.23
2019-01-28T13:02:28.490Z,963.17
2019-01-28T13:03:28.762Z,963.21
2019-01-28T13:04:28.876Z,963.25
2019-01-28T13:05:29.027Z,963.24
2019-01-28T13:06:29.146Z,963.28
2019-01-28T13:07:29.303Z,963.31
2019-01-28T13:08:29.467Z,963.28
2019-01-28T13:09:29.610Z,963.31
2019-01-28T13:10:29.756Z,963.31
2019-01-28T13:11:29.947Z,963.30
2019-01-28T13:12:30.101Z,963.30
2019-01-28T13:13:30.308Z,963.31
2019-01-28T13:14:30.447Z,963.26
2019-01-28T13:15:30.647Z,963.26
2019-01-28T13:16:30.816Z,963.26
2019-01-28T13:17:30.912Z,963.35
2019-01-28T13:18:31.062Z,963.34
2019-01-28T13:19:31.294Z,963.33
2019-01-28T13:20:31.347Z,963.33
2019-01-28T13:21:31.590Z,963.31
2019-01-28T13:22:31.766Z,963.36
2019-01-28T13:23:31.874Z,963.34
2019-01-28T13:24:31.990Z,963.37
2019-01-28T13:25:32.271Z,963.38
2019-01-28T13:26:32.428Z,963.32
2019-01-28T13:27:32.497Z,963.37
2019-01-28T13:28:32.715Z,963.43
2019-01-28T13:29:32.843Z,963.44
2019-01-28T13:30:32.971Z,963.45
2019-01-28T13:31:33.163Z,963.46
2019-01-28T13:32:33.283Z,963.48
2019-01-28T13:33:33.504Z,963.45
2019-01-28T13:34:33.597Z,963.47
2019-01-28T13:35:33.749Z,963.44
2019-01-28T13:36:33.944Z,963.50
2019-01-28T13:37:34.033Z,963.49
2019-01-28T13:38:34.192Z,963.50
2019-01-28T13:39:34.388Z,963.53
2019-01-28T13:40:34.523Z,963.54
2019-01-28T13:41:34.696Z,963.51
2019-01-28T13:42:34.957Z,963.54
2019-01-28T13:43:35.085Z,963.58
2019-01-28T13:44:35.189Z,963.65
2019-01-28T13:45:35.376Z,963.62
2019-01-28T13:46:35.561Z,963.62
2019-01-28T13:47:35.662Z,963.62
2019-01-28T13:48:35.831Z,963.69
2019-01-28T13:49:38.271Z,963.68
2019-01-28T13:50:36.178Z,963.72
2019-01-28T13:51:36.318Z,963.74
2019-01-28T13:52:36.486Z,963.73
2019-01-28T13:53:36.608Z,963.79
2019-01-28T13:54:36.815Z,963.80
2019-01-28T13:55:36.933Z,963.81
2019-01-28T13:56:37.140Z,963.81
2019-01-28T13:57:37.241Z,963.81
2019-01-28T13:58:37.406Z,963.89
2019-01-28T13:59:37.575Z,963.90
2019-01-28T14:00:37.687Z,963.88
2019-01-28T14:01:37.950Z,963.88
2019-01-28T14:02:38.054Z,963.88
2019-01-28T14:03:38.293Z,963.87
2019-01-28T14:04:38.407Z,963.88
2019-01-28T14:05:38.534Z,963.98
2019-01-28T14:06:38.741Z,963.96
2019-01-28T14:07:38.860Z,963.97
2019-01-28T14:08:39.029Z,963.96
2019-01-28T14:09:39.216Z,963.99
2019-01-28T14:10:39.340Z,964.04
2019-01-28T14:11:39.456Z,964.03
2019-01-28T14:12:39.653Z,964.09
2019-01-28T14:13:39.811Z,964.11
2019-01-28T14:14:40.000Z,964.09
2019-01-28T14:15:40.153Z,964.14
2019-01-28T14:16:40.307Z,964.14
2019-01-28T14:17:40.483Z,964.17
2019-01-28T14:18:40.674Z,964.25
2019-01-28T14:19:46.258Z,964.20
2019-01-28T14:20:40.966Z,964.20
2019-01-28T14:21:41.114Z,964.22
2019-01-28T14:22:41.305Z,964.19
2019-01-28T14:23:41.443Z,964.21
2019-01-28T14:24:41.578Z,964.21
2019-01-28T14:25:41.844Z,964.29
2019-01-28T14:26:41.970Z,964.27
2019-01-28T14:27:42.073Z,964.34
2019-01-28T14:28:42.253Z,964.35
2019-01-28T14:29:42.403Z,964.35
2019-01-28T14:30:42.618Z,964.40
2019-01-28T14:31:42.833Z,964.36
2019-01-28T14:32:43.020Z,964.42
2019-01-28T14:33:43.142Z,964.44
2019-01-28T14:34:43.330Z,964.45
2019-01-28T14:35:43.499Z,964.48
2019-01-28T14:36:43.641Z,964.51
2019-01-28T14:37:43.748Z,964.50
2019-01-28T14:38:43.926Z,964.47
2019-01-28T14:39:44.171Z,964.50
2019-01-28T14:40:44.263Z,964.53
2019-01-28T14:41:44.361Z,964.54
2019-01-28T14:42:44.571Z,964.50
2019-01-28T14:43:44.713Z,964.55
2019-01-28T14:44:45.000Z,964.61
2019-01-28T14:45:45.132Z,964.61
2019-01-28T14:46:45.308Z,964.60
2019-01-28T14:47:45.463Z,964.63
2019-01-28T14:48:49.194Z,964.62
2019-01-28T14:49:45.828Z,964.64
2019-01-28T14:50:45.993Z,964.67
2019-01-28T14:51:46.146Z,964.71
2019-01-28T14:52:46.385Z,964.70
2019-01-28T14:53:46.512Z,964.70
2019-01-28T14:54:46.644Z,964.68
2019-01-28T14:55:46.857Z,964.78
2019-01-28T14:56:46.975Z,964.78
2019-01-28T14:57:47.140Z,964.74
2019-01-28T14:58:47.339Z,964.74
2019-01-28T14:59:47.500Z,964.81
2019-01-28T15:00:47.595Z,964.73
2019-01-28T15:01:47.715Z,964.81
2019-01-28T15:02:47.895Z,964.79
2019-01-28T15:03:48.080Z,964.82
2019-01-28T15:04:48.273Z,964.83
2019-01-28T15:05:48.461Z,964.90
2019-01-28T15:06:48.608Z,964.93
2019-01-28T15:07:48.742Z,964.94
2019-01-28T15:08:48.899Z,964.96
2019-01-28T15:09:49.087Z,965.05
2019-01-28T15:10:49.203Z,965.04
2019-01-28T15:11:49.334Z,965.07
2019-01-28T15:12:49.564Z,965.08
2019-01-28T15:13:49.653Z,965.11
2019-01-28T15:14:49.934Z,965.10
2019-01-28T15:15:50.041Z,965.12
2019-01-28T15:16:50.242Z,965.11
2019-01-28T15:17:50.351Z,965.09
2019-01-28T15:18:50.508Z,965.11
2019-01-28T15:19:50.935Z,965.15
2019-01-28T15:20:50.838Z,965.16
2019-01-28T15:21:50.955Z,965.13
2019-01-28T15:22:51.110Z,965.22
2019-01-28T15:23:51.313Z,965.18
2019-01-28T15:24:51.437Z,965.23
2019-01-28T15:25:51.617Z,965.23
2019-01-28T15:26:51.752Z,965.28
2019-01-28T15:27:51.957Z,965.25
2019-01-28T15:28:52.074Z,965.32
2019-01-28T15:29:52.218Z,965.33
2019-01-28T15:30:52.386Z,965.33
2019-01-28T15:31:52.610Z,965.35
2019-01-28T15:32:52.686Z,965.37
2019-01-28T15:33:52.869Z,965.35
2019-01-28T15:34:53.043Z,965.36
2019-01-28T15:35:53.163Z,965.43
2019-01-28T15:36:53.295Z,965.48
2019-01-28T15:37:53.455Z,965.51
2019-01-28T15:38:53.677Z,965.54
2019-01-28T15:39:53.793Z,965.55
2019-01-28T15:40:54.003Z,965.58
2019-01-28T15:41:54.102Z,965.60
2019-01-28T15:42:54.300Z,965.64
2019-01-28T15:43:54.385Z,965.70
2019-01-28T15:44:54.575Z,965.67
2019-01-28T15:45:54.702Z,965.63
2019-01-28T15:46:54.898Z,965.70
2019-01-28T15:47:55.119Z,965.72
2019-01-28T15:48:55.224Z,965.71
2019-01-28T15:49:55.411Z,965.72
2019-01-28T15:50:55.486Z,965.72
2019-01-28T15:51:55.705Z,965.76
2019-01-28T15:52:55.874Z,965.78
2019-01-28T15:53:56.008Z,965.78
2019-01-28T15:54:56.168Z,965.81
2019-01-28T15:55:56.286Z,965.78
2019-01-28T15:56:56.493Z,965.79
2019-01-28T15:57:56.640Z,965.80
2019-01-28T15:58:56.756Z,965.81
2019-01-28T15:59:56.919Z,965.82
2019-01-28T16:00:57.098Z,965.84
2019-01-28T16:01:57.290Z,965.84
2019-01-28T16:02:57.401Z,965.90
2019-01-28T16:03:57.553Z,965.92
2019-01-28T16:04:57.678Z,965.97
2019-01-28T16:05:57.891Z,965.95
2019-01-28T16:06:58.039Z,965.98
2019-01-28T16:07:58.221Z,965.96
2019-01-28T16:08:58.309Z,966.02
2019-01-28T16:09:58.529Z,966.04
2019-01-28T16:10:58.719Z,966.08
2019-01-28T16:11:58.869Z,966.09
2019-01-28T16:12:58.985Z,966.13
2019-01-28T16:13:59.130Z,966.11
2019-01-28T16:14:59.348Z,966.14
2019-01-28T16:15:59.516Z,966.17
2019-01-28T16:16:59.618Z,966.21
2019-01-28T16:17:59.728Z,966.26
2019-01-28T16:18:59.998Z,966.28
2019-01-28T16:20:00.319Z,966.33
2019-01-28T16:21:00.250Z,966.35
2019-01-28T16:22:00.360Z,966.38
2019-01-28T16:23:00.555Z,966.39
2019-01-28T16:24:00.731Z,966.42
2019-01-28T16:25:00.884Z,966.45
2019-01-28T16:26:01.059Z,966.46
2019-01-28T16:27:01.256Z,966.47
2019-01-28T16:28:01.288Z,966.50
2019-01-28T16:29:01.484Z,966.50
2019-01-28T16:30:01.648Z,966.57
2019-01-28T16:31:01.804Z,966.57